logo dgac
Domingo 21 de Abril del 2019
Buscar por aerodromo o helipuerto
Ingrese nombre de aeródromo, localidad o designador OACI:
METAR del 21-04-2019 a las 11:00 UTC
METAR SCIE 211100Z 23005KT 8000 OVC010 12/11 Q1018
Viento: dirección 230 grados, velocidad 5 nudos
Visibilidad: 8000 metros
Nubes: Cubierto a 1000 pies sobre el nivel del aeródromo
Temperatura: 12 °C
Rocío: 11 °C
Humedad_relativa: 94%
Presión: 1018 hPa
METAR del 21-04-2019 a las 10:00 UTC
METAR SCIE 211000Z 22006KT 9999 OVC009 12/11 Q1018
Viento: dirección 220 grados, velocidad 6 nudos
Visibilidad: 10 km o más
Nubes: Cubierto a 900 pies sobre el nivel del aeródromo
Temperatura: 12 °C
Rocío: 11 °C
Humedad_relativa: 94%
Presión: 1018 hPa
METAR del 21-04-2019 a las 09:00 UTC
METAR SCIE 210900Z 21005KT 8000 OVC010 13/11 Q1017
Viento: dirección 210 grados, velocidad 5 nudos
Visibilidad: 8000 metros
Nubes: Cubierto a 1000 pies sobre el nivel del aeródromo
Temperatura: 13 °C
Rocío: 11 °C
Humedad_relativa: 88%
Presión: 1017 hPa
METAR del 21-04-2019 a las 08:00 UTC
METAR SCIE 210800Z 21004KT 8000 OVC012 13/12 Q1017
Viento: dirección 210 grados, velocidad 4 nudos
Visibilidad: 8000 metros
Nubes: Cubierto a 1200 pies sobre el nivel del aeródromo
Temperatura: 13 °C
Rocío: 12 °C
Humedad_relativa: 94%
Presión: 1017 hPa
METAR del 21-04-2019 a las 07:00 UTC
METAR SCIE 210700Z 21004KT 8000 OVC012 13/11 Q1018
Viento: dirección 210 grados, velocidad 4 nudos
Visibilidad: 8000 metros
Nubes: Cubierto a 1200 pies sobre el nivel del aeródromo
Temperatura: 13 °C
Rocío: 11 °C
Humedad_relativa: 88%
Presión: 1018 hPa
METAR del 21-04-2019 a las 06:00 UTC
METAR SCIE 210600Z 00000KT 9999 OVC010 13/12 Q1018
Visibilidad: 10 km o más
Nubes: Cubierto a 1000 pies sobre el nivel del aeródromo
Temperatura: 13 °C
Rocío: 12 °C
Humedad_relativa: 94%
Presión: 1018 hPa
METAR del 21-04-2019 a las 06:00 UTC
METAR SCIE 210600Z 00000KT 9999 OVC010 13/12 Q1018
Visibilidad: 10 km o más
Nubes: Cubierto a 1000 pies sobre el nivel del aeródromo
Temperatura: 13 °C
Rocío: 12 °C
Humedad_relativa: 94%
Presión: 1018 hPa
METAR del 21-04-2019 a las 05:00 UTC
METAR SCIE 210500Z VRB01KT 9999 OVC010 13/12 Q1019
Viento: dirección variable, velocidad 1 nudos
Visibilidad: 10 km o más
Nubes: Cubierto a 1000 pies sobre el nivel del aeródromo
Temperatura: 13 °C
Rocío: 12 °C
Humedad_relativa: 94%
Presión: 1019 hPa
METAR del 21-04-2019 a las 04:00 UTC
METAR SCIE 210400Z 26001KT 9999 OVC010 13/12 Q1019
Viento: dirección 260 grados, velocidad 1 nudos
Visibilidad: 10 km o más
Nubes: Cubierto a 1000 pies sobre el nivel del aeródromo
Temperatura: 13 °C
Rocío: 12 °C
Humedad_relativa: 94%
Presión: 1019 hPa
METAR del 21-04-2019 a las 03:00 UTC
METAR SCIE 210300Z 27003KT 9999 FEW009 OVC013 13/12 Q1019
Viento: dirección 270 grados, velocidad 3 nudos
Visibilidad: 10 km o más
Nubes: Escasa nubosidad a 900 pies sobre el nivel del aeródromo
Nubes: Cubierto a 1300 pies sobre el nivel del aeródromo
Temperatura: 13 °C
Rocío: 12 °C
Humedad_relativa: 94%
Presión: 1019 hPa